sensor_id;sensor_type;location;lat;lon;timestamp;P1;durP1;ratioP1;P2;durP2;ratioP2
14722;SDS011;7452;55.594;12.986;2022-10-16T00:01:52;24.97;;;20.30;;
14722;SDS011;7452;55.594;12.986;2022-10-16T00:04:19;28.27;;;19.77;;
14722;SDS011;7452;55.594;12.986;2022-10-16T00:06:46;24.60;;;19.17;;
14722;SDS011;7452;55.594;12.986;2022-10-16T00:09:15;27.40;;;19.20;;
14722;SDS011;7452;55.594;12.986;2022-10-16T00:11:44;24.30;;;18.17;;
14722;SDS011;7452;55.594;12.986;2022-10-16T00:14:14;22.93;;;18.17;;
14722;SDS011;7452;55.594;12.986;2022-10-16T00:16:44;22.33;;;17.67;;
14722;SDS011;7452;55.594;12.986;2022-10-16T00:19:13;22.73;;;16.93;;
14722;SDS011;7452;55.594;12.986;2022-10-16T00:21:41;22.07;;;16.53;;
14722;SDS011;7452;55.594;12.986;2022-10-16T00:24:12;22.50;;;16.30;;
14722;SDS011;7452;55.594;12.986;2022-10-16T00:26:41;20.90;;;15.87;;
14722;SDS011;7452;55.594;12.986;2022-10-16T00:29:11;20.63;;;16.60;;
14722;SDS011;7452;55.594;12.986;2022-10-16T00:31:39;21.27;;;16.23;;
14722;SDS011;7452;55.594;12.986;2022-10-16T00:34:07;18.53;;;15.60;;
14722;SDS011;7452;55.594;12.986;2022-10-16T00:36:40;19.23;;;15.93;;
14722;SDS011;7452;55.594;12.986;2022-10-16T00:39:11;20.07;;;15.20;;
14722;SDS011;7452;55.594;12.986;2022-10-16T00:41:38;18.73;;;16.00;;
14722;SDS011;7452;55.594;12.986;2022-10-16T00:47:11;22.13;;;16.03;;
14722;SDS011;7452;55.594;12.986;2022-10-16T00:49:42;22.77;;;17.17;;
14722;SDS011;7452;55.594;12.986;2022-10-16T00:52:14;22.77;;;17.13;;
14722;SDS011;7452;55.594;12.986;2022-10-16T00:54:42;23.23;;;17.73;;
14722;SDS011;7452;55.594;12.986;2022-10-16T00:57:20;26.63;;;17.77;;
14722;SDS011;7452;55.594;12.986;2022-10-16T00:59:48;24.50;;;17.53;;
14722;SDS011;7452;55.594;12.986;2022-10-16T01:02:16;23.93;;;16.40;;
14722;SDS011;7452;55.594;12.986;2022-10-16T01:04:45;23.27;;;16.63;;
14722;SDS011;7452;55.594;12.986;2022-10-16T01:07:18;21.43;;;15.97;;
14722;SDS011;7452;55.594;12.986;2022-10-16T01:09:57;18.70;;;15.80;;
14722;SDS011;7452;55.594;12.986;2022-10-16T01:12:38;19.97;;;14.93;;
14722;SDS011;7452;55.594;12.986;2022-10-16T01:15:10;20.60;;;15.17;;
14722;SDS011;7452;55.594;12.986;2022-10-16T01:17:45;19.90;;;14.40;;
14722;SDS011;7452;55.594;12.986;2022-10-16T01:20:21;17.50;;;13.23;;
14722;SDS011;7452;55.594;12.986;2022-10-16T01:23:16;18.90;;;13.80;;
14722;SDS011;7452;55.594;12.986;2022-10-16T01:26:03;17.83;;;13.97;;
14722;SDS011;7452;55.594;12.986;2022-10-16T01:29:09;21.10;;;13.83;;
14722;SDS011;7452;55.594;12.986;2022-10-16T01:31:44;16.70;;;13.70;;
14722;SDS011;7452;55.594;12.986;2022-10-16T01:34:15;22.17;;;14.27;;
14722;SDS011;7452;55.594;12.986;2022-10-16T01:36:49;16.23;;;13.43;;
14722;SDS011;7452;55.594;12.986;2022-10-16T01:39:20;18.13;;;13.43;;
14722;SDS011;7452;55.594;12.986;2022-10-16T01:41:58;18.30;;;15.33;;
14722;SDS011;7452;55.594;12.986;2022-10-16T01:44:34;17.60;;;13.40;;
14722;SDS011;7452;55.594;12.986;2022-10-16T01:47:04;16.53;;;13.30;;
14722;SDS011;7452;55.594;12.986;2022-10-16T01:49:36;16.87;;;14.13;;
14722;SDS011;7452;55.594;12.986;2022-10-16T01:52:19;17.10;;;12.63;;
14722;SDS011;7452;55.594;12.986;2022-10-16T01:54:57;16.33;;;12.63;;
14722;SDS011;7452;55.594;12.986;2022-10-16T01:57:29;17.53;;;13.03;;
14722;SDS011;7452;55.594;12.986;2022-10-16T02:00:04;15.33;;;11.93;;
14722;SDS011;7452;55.594;12.986;2022-10-16T02:02:36;17.80;;;12.60;;
14722;SDS011;7452;55.594;12.986;2022-10-16T02:05:10;14.00;;;12.30;;
14722;SDS011;7452;55.594;12.986;2022-10-16T02:07:42;16.90;;;12.37;;
14722;SDS011;7452;55.594;12.986;2022-10-16T02:10:11;14.67;;;11.87;;
14722;SDS011;7452;55.594;12.986;2022-10-16T02:12:39;14.00;;;11.37;;
14722;SDS011;7452;55.594;12.986;2022-10-16T02:15:12;14.33;;;11.90;;
14722;SDS011;7452;55.594;12.986;2022-10-16T02:17:40;14.10;;;11.33;;
14722;SDS011;7452;55.594;12.986;2022-10-16T02:20:10;17.80;;;12.43;;
14722;SDS011;7452;55.594;12.986;2022-10-16T02:22:38;17.50;;;12.67;;
14722;SDS011;7452;55.594;12.986;2022-10-16T02:25:09;16.90;;;13.10;;
14722;SDS011;7452;55.594;12.986;2022-10-16T02:27:42;19.83;;;13.77;;
14722;SDS011;7452;55.594;12.986;2022-10-16T02:30:19;21.07;;;15.63;;
14722;SDS011;7452;55.594;12.986;2022-10-16T02:32:53;20.10;;;15.97;;
14722;SDS011;7452;55.594;12.986;2022-10-16T02:35:22;19.63;;;15.13;;
14722;SDS011;7452;55.594;12.986;2022-10-16T02:37:52;22.60;;;15.33;;
14722;SDS011;7452;55.594;12.986;2022-10-16T02:40:21;21.50;;;15.83;;
14722;SDS011;7452;55.594;12.986;2022-10-16T02:42:50;22.37;;;15.60;;
14722;SDS011;7452;55.594;12.986;2022-10-16T02:45:20;20.13;;;15.67;;
14722;SDS011;7452;55.594;12.986;2022-10-16T02:47:48;21.17;;;15.17;;
14722;SDS011;7452;55.594;12.986;2022-10-16T02:50:16;20.57;;;15.03;;
14722;SDS011;7452;55.594;12.986;2022-10-16T02:52:44;19.93;;;14.87;;
14722;SDS011;7452;55.594;12.986;2022-10-16T02:55:12;19.67;;;14.70;;
14722;SDS011;7452;55.594;12.986;2022-10-16T02:57:51;18.57;;;14.20;;
14722;SDS011;7452;55.594;12.986;2022-10-16T03:00:20;19.00;;;14.27;;
14722;SDS011;7452;55.594;12.986;2022-10-16T03:03:00;22.47;;;15.53;;
14722;SDS011;7452;55.594;12.986;2022-10-16T03:05:28;20.97;;;15.03;;
14722;SDS011;7452;55.594;12.986;2022-10-16T03:07:56;24.40;;;15.33;;
14722;SDS011;7452;55.594;12.986;2022-10-16T03:10:25;22.07;;;15.33;;
14722;SDS011;7452;55.594;12.986;2022-10-16T03:12:53;17.53;;;13.03;;
14722;SDS011;7452;55.594;12.986;2022-10-16T03:15:24;22.13;;;13.80;;
14722;SDS011;7452;55.594;12.986;2022-10-16T03:17:54;13.80;;;11.43;;
14722;SDS011;7452;55.594;12.986;2022-10-16T03:20:23;19.50;;;13.07;;
14722;SDS011;7452;55.594;12.986;2022-10-16T03:22:52;15.60;;;12.13;;
14722;SDS011;7452;55.594;12.986;2022-10-16T03:25:21;14.77;;;11.53;;
14722;SDS011;7452;55.594;12.986;2022-10-16T03:27:49;19.40;;;11.17;;
14722;SDS011;7452;55.594;12.986;2022-10-16T03:30:20;17.90;;;11.80;;
14722;SDS011;7452;55.594;12.986;2022-10-16T03:32:53;18.33;;;11.90;;
14722;SDS011;7452;55.594;12.986;2022-10-16T03:35:22;20.90;;;12.20;;
14722;SDS011;7452;55.594;12.986;2022-10-16T03:37:54;17.97;;;11.93;;
14722;SDS011;7452;55.594;12.986;2022-10-16T03:40:22;17.93;;;12.00;;
14722;SDS011;7452;55.594;12.986;2022-10-16T03:42:53;19.23;;;12.43;;
14722;SDS011;7452;55.594;12.986;2022-10-16T03:45:26;20.10;;;12.30;;
14722;SDS011;7452;55.594;12.986;2022-10-16T03:48:00;20.60;;;12.27;;
14722;SDS011;7452;55.594;12.986;2022-10-16T03:50:30;21.00;;;11.90;;
14722;SDS011;7452;55.594;12.986;2022-10-16T03:52:58;16.07;;;10.27;;
14722;SDS011;7452;55.594;12.986;2022-10-16T03:55:26;24.73;;;11.27;;
14722;SDS011;7452;55.594;12.986;2022-10-16T03:57:54;14.63;;;10.23;;
14722;SDS011;7452;55.594;12.986;2022-10-16T04:00:22;20.50;;;10.10;;
14722;SDS011;7452;55.594;12.986;2022-10-16T04:02:54;12.97;;;9.20;;
14722;SDS011;7452;55.594;12.986;2022-10-16T04:05:22;17.90;;;9.43;;
14722;SDS011;7452;55.594;12.986;2022-10-16T04:07:50;11.80;;;8.97;;
14722;SDS011;7452;55.594;12.986;2022-10-16T04:10:18;16.03;;;9.97;;
14722;SDS011;7452;55.594;12.986;2022-10-16T04:12:45;16.23;;;9.57;;
14722;SDS011;7452;55.594;12.986;2022-10-16T04:15:13;18.33;;;10.50;;
14722;SDS011;7452;55.594;12.986;2022-10-16T04:17:48;16.57;;;10.23;;
14722;SDS011;7452;55.594;12.986;2022-10-16T04:20:16;13.63;;;10.20;;
14722;SDS011;7452;55.594;12.986;2022-10-16T04:22:43;17.10;;;10.60;;
14722;SDS011;7452;55.594;12.986;2022-10-16T04:25:10;14.50;;;10.53;;
14722;SDS011;7452;55.594;12.986;2022-10-16T04:27:39;15.57;;;11.23;;
14722;SDS011;7452;55.594;12.986;2022-10-16T04:30:09;17.10;;;11.07;;
14722;SDS011;7452;55.594;12.986;2022-10-16T04:32:38;17.07;;;11.10;;
14722;SDS011;7452;55.594;12.986;2022-10-16T04:35:08;16.37;;;10.97;;
14722;SDS011;7452;55.594;12.986;2022-10-16T04:37:35;17.50;;;9.97;;
14722;SDS011;7452;55.594;12.986;2022-10-16T04:40:05;18.77;;;9.77;;
14722;SDS011;7452;55.594;12.986;2022-10-16T04:42:34;17.93;;;8.97;;
14722;SDS011;7452;55.594;12.986;2022-10-16T04:45:01;14.37;;;8.83;;
14722;SDS011;7452;55.594;12.986;2022-10-16T04:47:29;16.40;;;8.43;;
14722;SDS011;7452;55.594;12.986;2022-10-16T04:49:56;15.27;;;7.83;;
14722;SDS011;7452;55.594;12.986;2022-10-16T04:52:29;10.53;;;7.33;;
14722;SDS011;7452;55.594;12.986;2022-10-16T04:54:56;10.63;;;7.97;;
14722;SDS011;7452;55.594;12.986;2022-10-16T04:57:26;8.90;;;6.90;;
14722;SDS011;7452;55.594;12.986;2022-10-16T04:59:53;12.80;;;6.77;;
14722;SDS011;7452;55.594;12.986;2022-10-16T05:02:24;11.53;;;6.83;;
14722;SDS011;7452;55.594;12.986;2022-10-16T05:04:51;8.70;;;6.40;;
14722;SDS011;7452;55.594;12.986;2022-10-16T05:07:20;11.90;;;6.57;;
14722;SDS011;7452;55.594;12.986;2022-10-16T05:09:50;11.57;;;6.33;;
14722;SDS011;7452;55.594;12.986;2022-10-16T05:12:18;8.60;;;5.97;;
14722;SDS011;7452;55.594;12.986;2022-10-16T05:14:46;11.17;;;5.83;;
14722;SDS011;7452;55.594;12.986;2022-10-16T05:17:13;10.20;;;5.70;;
14722;SDS011;7452;55.594;12.986;2022-10-16T05:19:41;10.30;;;5.87;;
14722;SDS011;7452;55.594;12.986;2022-10-16T05:22:08;11.60;;;5.93;;
14722;SDS011;7452;55.594;12.986;2022-10-16T05:24:38;10.57;;;6.07;;
14722;SDS011;7452;55.594;12.986;2022-10-16T05:27:07;10.63;;;5.27;;
14722;SDS011;7452;55.594;12.986;2022-10-16T05:29:36;13.33;;;5.97;;
14722;SDS011;7452;55.594;12.986;2022-10-16T05:32:05;12.73;;;5.60;;
14722;SDS011;7452;55.594;12.986;2022-10-16T05:34:32;9.43;;;5.13;;
14722;SDS011;7452;55.594;12.986;2022-10-16T05:36:59;11.50;;;5.73;;
14722;SDS011;7452;55.594;12.986;2022-10-16T05:39:27;10.80;;;5.27;;
14722;SDS011;7452;55.594;12.986;2022-10-16T05:41:55;8.67;;;4.93;;
14722;SDS011;7452;55.594;12.986;2022-10-16T05:44:27;12.20;;;5.53;;
14722;SDS011;7452;55.594;12.986;2022-10-16T05:46:55;8.43;;;5.57;;
14722;SDS011;7452;55.594;12.986;2022-10-16T05:49:23;8.37;;;4.77;;
14722;SDS011;7452;55.594;12.986;2022-10-16T05:51:52;7.73;;;5.10;;
14722;SDS011;7452;55.594;12.986;2022-10-16T05:54:19;8.67;;;4.57;;
14722;SDS011;7452;55.594;12.986;2022-10-16T05:56:50;8.43;;;5.87;;
14722;SDS011;7452;55.594;12.986;2022-10-16T05:59:21;12.03;;;7.30;;
14722;SDS011;7452;55.594;12.986;2022-10-16T06:01:50;8.60;;;5.47;;
14722;SDS011;7452;55.594;12.986;2022-10-16T06:04:18;8.97;;;5.43;;
14722;SDS011;7452;55.594;12.986;2022-10-16T06:06:45;12.63;;;5.17;;
14722;SDS011;7452;55.594;12.986;2022-10-16T06:09:13;10.67;;;5.53;;
14722;SDS011;7452;55.594;12.986;2022-10-16T06:11:41;8.30;;;5.77;;
14722;SDS011;7452;55.594;12.986;2022-10-16T06:14:08;11.67;;;5.07;;
14722;SDS011;7452;55.594;12.986;2022-10-16T06:16:37;8.13;;;5.50;;
14722;SDS011;7452;55.594;12.986;2022-10-16T06:19:07;8.80;;;5.10;;
14722;SDS011;7452;55.594;12.986;2022-10-16T06:21:34;10.37;;;5.17;;
14722;SDS011;7452;55.594;12.986;2022-10-16T06:24:05;8.97;;;5.27;;
14722;SDS011;7452;55.594;12.986;2022-10-16T06:26:32;8.87;;;4.93;;
14722;SDS011;7452;55.594;12.986;2022-10-16T06:29:00;8.57;;;5.20;;
14722;SDS011;7452;55.594;12.986;2022-10-16T06:31:27;8.60;;;5.53;;
14722;SDS011;7452;55.594;12.986;2022-10-16T06:33:57;9.70;;;5.47;;
14722;SDS011;7452;55.594;12.986;2022-10-16T06:36:26;10.63;;;5.13;;
14722;SDS011;7452;55.594;12.986;2022-10-16T06:38:55;10.70;;;4.80;;
14722;SDS011;7452;55.594;12.986;2022-10-16T06:41:25;9.03;;;5.30;;
14722;SDS011;7452;55.594;12.986;2022-10-16T06:43:53;8.83;;;5.20;;
14722;SDS011;7452;55.594;12.986;2022-10-16T06:46:22;9.33;;;4.90;;
14722;SDS011;7452;55.594;12.986;2022-10-16T06:48:51;8.33;;;5.07;;
14722;SDS011;7452;55.594;12.986;2022-10-16T06:51:20;10.17;;;4.90;;
14722;SDS011;7452;55.594;12.986;2022-10-16T06:53:51;8.60;;;5.27;;
14722;SDS011;7452;55.594;12.986;2022-10-16T06:56:22;11.50;;;5.77;;
14722;SDS011;7452;55.594;12.986;2022-10-16T06:58:52;10.23;;;5.00;;
14722;SDS011;7452;55.594;12.986;2022-10-16T07:01:22;11.03;;;5.07;;
14722;SDS011;7452;55.594;12.986;2022-10-16T07:03:51;10.50;;;4.33;;
14722;SDS011;7452;55.594;12.986;2022-10-16T07:06:20;8.60;;;4.97;;
14722;SDS011;7452;55.594;12.986;2022-10-16T07:08:51;6.77;;;4.50;;
14722;SDS011;7452;55.594;12.986;2022-10-16T07:11:19;7.87;;;4.20;;
14722;SDS011;7452;55.594;12.986;2022-10-16T07:13:48;11.47;;;4.63;;
14722;SDS011;7452;55.594;12.986;2022-10-16T07:16:16;11.30;;;4.33;;
14722;SDS011;7452;55.594;12.986;2022-10-16T07:19:01;6.67;;;3.97;;
14722;SDS011;7452;55.594;12.986;2022-10-16T07:21:30;11.10;;;4.47;;
14722;SDS011;7452;55.594;12.986;2022-10-16T07:24:02;7.33;;;3.90;;
14722;SDS011;7452;55.594;12.986;2022-10-16T07:26:32;9.83;;;4.27;;
14722;SDS011;7452;55.594;12.986;2022-10-16T07:29:04;7.13;;;3.67;;
14722;SDS011;7452;55.594;12.986;2022-10-16T07:31:32;6.73;;;3.40;;
14722;SDS011;7452;55.594;12.986;2022-10-16T07:34:00;4.80;;;3.20;;
14722;SDS011;7452;55.594;12.986;2022-10-16T07:36:28;6.83;;;3.50;;
14722;SDS011;7452;55.594;12.986;2022-10-16T07:38:57;9.73;;;3.50;;
14722;SDS011;7452;55.594;12.986;2022-10-16T07:41:27;7.43;;;3.33;;
14722;SDS011;7452;55.594;12.986;2022-10-16T07:43:55;5.80;;;3.30;;
14722;SDS011;7452;55.594;12.986;2022-10-16T07:46:25;7.97;;;3.13;;
14722;SDS011;7452;55.594;12.986;2022-10-16T07:48:52;7.53;;;3.00;;
14722;SDS011;7452;55.594;12.986;2022-10-16T07:51:21;7.50;;;3.30;;
14722;SDS011;7452;55.594;12.986;2022-10-16T07:53:50;6.27;;;2.83;;
14722;SDS011;7452;55.594;12.986;2022-10-16T07:56:21;7.10;;;2.67;;
14722;SDS011;7452;55.594;12.986;2022-10-16T07:58:53;8.70;;;3.47;;
14722;SDS011;7452;55.594;12.986;2022-10-16T08:01:21;5.87;;;2.73;;
14722;SDS011;7452;55.594;12.986;2022-10-16T08:03:51;7.30;;;2.80;;
14722;SDS011;7452;55.594;12.986;2022-10-16T08:06:19;10.83;;;2.87;;
14722;SDS011;7452;55.594;12.986;2022-10-16T08:08:51;6.17;;;2.30;;
14722;SDS011;7452;55.594;12.986;2022-10-16T08:11:19;4.13;;;1.93;;
14722;SDS011;7452;55.594;12.986;2022-10-16T08:13:48;5.53;;;2.47;;
14722;SDS011;7452;55.594;12.986;2022-10-16T08:16:18;10.73;;;2.80;;
14722;SDS011;7452;55.594;12.986;2022-10-16T08:18:48;7.97;;;2.33;;
14722;SDS011;7452;55.594;12.986;2022-10-16T08:21:17;6.83;;;2.17;;
14722;SDS011;7452;55.594;12.986;2022-10-16T08:23:45;6.63;;;2.17;;
14722;SDS011;7452;55.594;12.986;2022-10-16T08:26:16;5.30;;;2.30;;
14722;SDS011;7452;55.594;12.986;2022-10-16T08:28:44;7.43;;;2.10;;
14722;SDS011;7452;55.594;12.986;2022-10-16T08:31:14;5.70;;;2.20;;
14722;SDS011;7452;55.594;12.986;2022-10-16T08:33:44;5.37;;;2.10;;
14722;SDS011;7452;55.594;12.986;2022-10-16T08:36:13;4.50;;;2.20;;
14722;SDS011;7452;55.594;12.986;2022-10-16T08:38:42;3.63;;;1.97;;
14722;SDS011;7452;55.594;12.986;2022-10-16T08:41:17;6.20;;;1.90;;
14722;SDS011;7452;55.594;12.986;2022-10-16T08:44:12;4.33;;;1.93;;
14722;SDS011;7452;55.594;12.986;2022-10-16T08:47:00;6.37;;;2.17;;
14722;SDS011;7452;55.594;12.986;2022-10-16T08:49:38;4.90;;;2.20;;
14722;SDS011;7452;55.594;12.986;2022-10-16T08:52:10;6.63;;;2.10;;
14722;SDS011;7452;55.594;12.986;2022-10-16T08:54:41;4.60;;;2.10;;
14722;SDS011;7452;55.594;12.986;2022-10-16T08:57:12;8.33;;;2.37;;
14722;SDS011;7452;55.594;12.986;2022-10-16T08:59:45;4.67;;;2.00;;
14722;SDS011;7452;55.594;12.986;2022-10-16T09:02:24;6.17;;;2.20;;
14722;SDS011;7452;55.594;12.986;2022-10-16T09:05:05;4.43;;;1.90;;
14722;SDS011;7452;55.594;12.986;2022-10-16T09:07:49;5.83;;;1.73;;
14722;SDS011;7452;55.594;12.986;2022-10-16T09:10:32;3.80;;;1.70;;
14722;SDS011;7452;55.594;12.986;2022-10-16T09:13:09;4.30;;;1.67;;
14722;SDS011;7452;55.594;12.986;2022-10-16T09:15:44;5.43;;;1.73;;
14722;SDS011;7452;55.594;12.986;2022-10-16T09:18:18;3.90;;;1.80;;
14722;SDS011;7452;55.594;12.986;2022-10-16T09:20:54;7.23;;;2.23;;
14722;SDS011;7452;55.594;12.986;2022-10-16T09:23:27;3.07;;;1.60;;
14722;SDS011;7452;55.594;12.986;2022-10-16T09:25:56;3.53;;;1.80;;
14722;SDS011;7452;55.594;12.986;2022-10-16T09:28:26;9.07;;;2.03;;
14722;SDS011;7452;55.594;12.986;2022-10-16T09:30:56;4.57;;;1.57;;
14722;SDS011;7452;55.594;12.986;2022-10-16T09:33:25;5.10;;;1.77;;
14722;SDS011;7452;55.594;12.986;2022-10-16T09:35:57;5.90;;;1.97;;
14722;SDS011;7452;55.594;12.986;2022-10-16T09:38:26;6.00;;;1.87;;
14722;SDS011;7452;55.594;12.986;2022-10-16T09:40:54;6.90;;;1.87;;
14722;SDS011;7452;55.594;12.986;2022-10-16T09:43:23;4.13;;;1.53;;
14722;SDS011;7452;55.594;12.986;2022-10-16T09:45:56;5.63;;;2.07;;
14722;SDS011;7452;55.594;12.986;2022-10-16T09:48:25;4.13;;;1.57;;
14722;SDS011;7452;55.594;12.986;2022-10-16T09:50:59;7.30;;;1.97;;
14722;SDS011;7452;55.594;12.986;2022-10-16T09:53:37;6.37;;;1.60;;
14722;SDS011;7452;55.594;12.986;2022-10-16T09:56:06;3.50;;;1.43;;
14722;SDS011;7452;55.594;12.986;2022-10-16T09:58:34;5.30;;;1.60;;
14722;SDS011;7452;55.594;12.986;2022-10-16T10:01:02;4.13;;;1.60;;
14722;SDS011;7452;55.594;12.986;2022-10-16T10:03:37;5.33;;;1.37;;
14722;SDS011;7452;55.594;12.986;2022-10-16T10:06:21;2.67;;;1.30;;
14722;SDS011;7452;55.594;12.986;2022-10-16T10:08:53;4.87;;;1.33;;
14722;SDS011;7452;55.594;12.986;2022-10-16T10:11:41;5.30;;;1.93;;
14722;SDS011;7452;55.594;12.986;2022-10-16T10:14:16;8.97;;;1.70;;
14722;SDS011;7452;55.594;12.986;2022-10-16T10:16:46;6.07;;;1.80;;
14722;SDS011;7452;55.594;12.986;2022-10-16T10:19:14;5.17;;;1.77;;
14722;SDS011;7452;55.594;12.986;2022-10-16T10:21:44;3.10;;;1.40;;
14722;SDS011;7452;55.594;12.986;2022-10-16T10:24:12;5.20;;;1.87;;
14722;SDS011;7452;55.594;12.986;2022-10-16T10:26:43;4.60;;;1.77;;
14722;SDS011;7452;55.594;12.986;2022-10-16T10:29:27;4.10;;;1.57;;
14722;SDS011;7452;55.594;12.986;2022-10-16T10:32:10;6.13;;;1.50;;
14722;SDS011;7452;55.594;12.986;2022-10-16T10:34:53;4.03;;;1.60;;
14722;SDS011;7452;55.594;12.986;2022-10-16T10:37:37;5.20;;;1.50;;
14722;SDS011;7452;55.594;12.986;2022-10-16T10:40:22;4.20;;;1.73;;
14722;SDS011;7452;55.594;12.986;2022-10-16T10:42:57;5.00;;;1.80;;
14722;SDS011;7452;55.594;12.986;2022-10-16T10:45:36;4.30;;;1.20;;
14722;SDS011;7452;55.594;12.986;2022-10-16T10:48:19;4.80;;;1.27;;
14722;SDS011;7452;55.594;12.986;2022-10-16T10:50:57;4.47;;;1.47;;
14722;SDS011;7452;55.594;12.986;2022-10-16T10:53:41;4.47;;;1.50;;
14722;SDS011;7452;55.594;12.986;2022-10-16T10:56:16;5.13;;;1.50;;
14722;SDS011;7452;55.594;12.986;2022-10-16T10:59:19;3.00;;;1.53;;
14722;SDS011;7452;55.594;12.986;2022-10-16T11:02:10;7.47;;;1.60;;
14722;SDS011;7452;55.594;12.986;2022-10-16T11:04:50;3.57;;;1.47;;
14722;SDS011;7452;55.594;12.986;2022-10-16T11:07:39;6.23;;;1.47;;
14722;SDS011;7452;55.594;12.986;2022-10-16T11:10:24;2.63;;;1.10;;
14722;SDS011;7452;55.594;12.986;2022-10-16T11:12:58;4.07;;;1.40;;
14722;SDS011;7452;55.594;12.986;2022-10-16T11:15:35;3.13;;;1.50;;
14722;SDS011;7452;55.594;12.986;2022-10-16T11:18:05;5.57;;;1.40;;
14722;SDS011;7452;55.594;12.986;2022-10-16T11:20:39;5.33;;;1.50;;
14722;SDS011;7452;55.594;12.986;2022-10-16T11:23:14;4.13;;;1.40;;
14722;SDS011;7452;55.594;12.986;2022-10-16T11:25:48;3.90;;;1.33;;
14722;SDS011;7452;55.594;12.986;2022-10-16T11:28:18;6.07;;;1.83;;
14722;SDS011;7452;55.594;12.986;2022-10-16T11:30:51;4.67;;;1.43;;
14722;SDS011;7452;55.594;12.986;2022-10-16T11:33:25;4.90;;;1.60;;
14722;SDS011;7452;55.594;12.986;2022-10-16T11:36:00;3.73;;;1.50;;
14722;SDS011;7452;55.594;12.986;2022-10-16T11:38:36;3.60;;;1.20;;
14722;SDS011;7452;55.594;12.986;2022-10-16T11:41:13;6.97;;;2.03;;
14722;SDS011;7452;55.594;12.986;2022-10-16T11:43:49;5.27;;;1.60;;
14722;SDS011;7452;55.594;12.986;2022-10-16T11:46:27;3.43;;;1.40;;
14722;SDS011;7452;55.594;12.986;2022-10-16T11:48:57;5.30;;;1.40;;
14722;SDS011;7452;55.594;12.986;2022-10-16T11:51:32;5.13;;;1.60;;
14722;SDS011;7452;55.594;12.986;2022-10-16T11:54:07;5.63;;;1.50;;
14722;SDS011;7452;55.594;12.986;2022-10-16T11:56:44;5.13;;;1.50;;
14722;SDS011;7452;55.594;12.986;2022-10-16T11:59:23;5.53;;;1.60;;
14722;SDS011;7452;55.594;12.986;2022-10-16T12:01:59;5.43;;;1.37;;
14722;SDS011;7452;55.594;12.986;2022-10-16T12:04:54;3.57;;;1.43;;
14722;SDS011;7452;55.594;12.986;2022-10-16T12:07:34;4.50;;;1.70;;
14722;SDS011;7452;55.594;12.986;2022-10-16T12:10:10;7.03;;;1.70;;
14722;SDS011;7452;55.594;12.986;2022-10-16T12:12:51;4.90;;;1.40;;
14722;SDS011;7452;55.594;12.986;2022-10-16T12:15:19;5.17;;;1.50;;
14722;SDS011;7452;55.594;12.986;2022-10-16T12:17:51;4.00;;;1.20;;
14722;SDS011;7452;55.594;12.986;2022-10-16T12:20:21;4.20;;;1.23;;
14722;SDS011;7452;55.594;12.986;2022-10-16T12:22:58;3.40;;;1.27;;
14722;SDS011;7452;55.594;12.986;2022-10-16T12:25:28;2.83;;;1.33;;
14722;SDS011;7452;55.594;12.986;2022-10-16T12:28:02;4.57;;;1.47;;
14722;SDS011;7452;55.594;12.986;2022-10-16T12:30:33;3.83;;;1.43;;
14722;SDS011;7452;55.594;12.986;2022-10-16T12:33:02;2.77;;;1.10;;
14722;SDS011;7452;55.594;12.986;2022-10-16T12:35:34;5.07;;;1.60;;
14722;SDS011;7452;55.594;12.986;2022-10-16T12:38:15;2.97;;;1.60;;
14722;SDS011;7452;55.594;12.986;2022-10-16T12:40:44;3.50;;;1.60;;
14722;SDS011;7452;55.594;12.986;2022-10-16T12:43:34;6.87;;;1.70;;
14722;SDS011;7452;55.594;12.986;2022-10-16T12:46:04;7.13;;;1.70;;
14722;SDS011;7452;55.594;12.986;2022-10-16T12:48:47;3.93;;;1.50;;
14722;SDS011;7452;55.594;12.986;2022-10-16T12:51:23;6.60;;;1.80;;
14722;SDS011;7452;55.594;12.986;2022-10-16T12:54:00;5.73;;;1.77;;
14722;SDS011;7452;55.594;12.986;2022-10-16T12:56:33;5.47;;;1.30;;
14722;SDS011;7452;55.594;12.986;2022-10-16T12:59:11;5.10;;;1.90;;
14722;SDS011;7452;55.594;12.986;2022-10-16T13:04:54;6.63;;;2.23;;
14722;SDS011;7452;55.594;12.986;2022-10-16T13:07:48;6.17;;;2.17;;
14722;SDS011;7452;55.594;12.986;2022-10-16T13:10:25;6.07;;;2.10;;
14722;SDS011;7452;55.594;12.986;2022-10-16T13:13:01;6.27;;;1.63;;
14722;SDS011;7452;55.594;12.986;2022-10-16T13:15:57;7.17;;;1.53;;
14722;SDS011;7452;55.594;12.986;2022-10-16T13:18:36;8.17;;;1.80;;
14722;SDS011;7452;55.594;12.986;2022-10-16T13:21:18;10.40;;;4.27;;
14722;SDS011;7452;55.594;12.986;2022-10-16T13:24:00;8.67;;;2.40;;
14722;SDS011;7452;55.594;12.986;2022-10-16T13:26:39;7.43;;;2.63;;
14722;SDS011;7452;55.594;12.986;2022-10-16T13:29:13;7.47;;;2.43;;
14722;SDS011;7452;55.594;12.986;2022-10-16T13:31:44;9.07;;;2.07;;
14722;SDS011;7452;55.594;12.986;2022-10-16T13:34:13;9.00;;;2.60;;
14722;SDS011;7452;55.594;12.986;2022-10-16T13:36:44;4.80;;;1.70;;
14722;SDS011;7452;55.594;12.986;2022-10-16T13:39:16;6.37;;;1.93;;
14722;SDS011;7452;55.594;12.986;2022-10-16T13:41:57;7.70;;;2.10;;
14722;SDS011;7452;55.594;12.986;2022-10-16T13:44:28;7.07;;;1.93;;
14722;SDS011;7452;55.594;12.986;2022-10-16T13:47:12;5.43;;;1.97;;
14722;SDS011;7452;55.594;12.986;2022-10-16T13:49:43;6.23;;;2.17;;
14722;SDS011;7452;55.594;12.986;2022-10-16T13:52:18;8.27;;;2.17;;
14722;SDS011;7452;55.594;12.986;2022-10-16T13:54:47;7.23;;;2.20;;
14722;SDS011;7452;55.594;12.986;2022-10-16T13:57:14;6.93;;;1.80;;
14722;SDS011;7452;55.594;12.986;2022-10-16T13:59:43;6.77;;;1.90;;
14722;SDS011;7452;55.594;12.986;2022-10-16T14:02:17;6.97;;;2.10;;
14722;SDS011;7452;55.594;12.986;2022-10-16T14:04:54;7.63;;;1.87;;
14722;SDS011;7452;55.594;12.986;2022-10-16T14:07:27;7.03;;;1.83;;
14722;SDS011;7452;55.594;12.986;2022-10-16T14:09:58;9.07;;;2.23;;
14722;SDS011;7452;55.594;12.986;2022-10-16T14:12:29;11.43;;;2.17;;
14722;SDS011;7452;55.594;12.986;2022-10-16T14:14:57;9.03;;;2.40;;
14722;SDS011;7452;55.594;12.986;2022-10-16T14:17:31;7.17;;;2.07;;
14722;SDS011;7452;55.594;12.986;2022-10-16T14:20:02;9.00;;;2.37;;
14722;SDS011;7452;55.594;12.986;2022-10-16T14:22:35;6.00;;;2.10;;
14722;SDS011;7452;55.594;12.986;2022-10-16T14:25:16;6.73;;;2.47;;
14722;SDS011;7452;55.594;12.986;2022-10-16T14:27:56;6.23;;;2.27;;
14722;SDS011;7452;55.594;12.986;2022-10-16T14:30:25;8.67;;;2.37;;
14722;SDS011;7452;55.594;12.986;2022-10-16T14:32:56;8.77;;;2.40;;
14722;SDS011;7452;55.594;12.986;2022-10-16T14:35:27;9.60;;;2.20;;
14722;SDS011;7452;55.594;12.986;2022-10-16T14:37:57;7.57;;;2.33;;
14722;SDS011;7452;55.594;12.986;2022-10-16T14:40:26;8.93;;;2.43;;
14722;SDS011;7452;55.594;12.986;2022-10-16T14:42:55;6.90;;;2.30;;
14722;SDS011;7452;55.594;12.986;2022-10-16T14:45:24;8.97;;;2.50;;
14722;SDS011;7452;55.594;12.986;2022-10-16T14:47:57;12.10;;;2.67;;
14722;SDS011;7452;55.594;12.986;2022-10-16T14:50:26;7.27;;;2.53;;
14722;SDS011;7452;55.594;12.986;2022-10-16T14:52:54;9.63;;;2.40;;
14722;SDS011;7452;55.594;12.986;2022-10-16T14:55:29;12.20;;;2.60;;
14722;SDS011;7452;55.594;12.986;2022-10-16T14:58:03;10.93;;;2.33;;
14722;SDS011;7452;55.594;12.986;2022-10-16T15:00:32;8.10;;;2.47;;
14722;SDS011;7452;55.594;12.986;2022-10-16T15:03:02;10.80;;;2.40;;
14722;SDS011;7452;55.594;12.986;2022-10-16T15:05:30;8.07;;;2.30;;
14722;SDS011;7452;55.594;12.986;2022-10-16T15:07:58;11.43;;;2.87;;
14722;SDS011;7452;55.594;12.986;2022-10-16T15:10:27;7.40;;;2.13;;
14722;SDS011;7452;55.594;12.986;2022-10-16T15:13:01;7.80;;;2.23;;
14722;SDS011;7452;55.594;12.986;2022-10-16T15:15:35;11.60;;;2.97;;